Time;durP1;ratioP1;P1;durP2;ratioP2;P2;SDS_P1;SDS_P2;PMS_P1;PMS_P2;Temp;Humidity;BMP_temperature;BMP_pressure;BME280_temperature;BME280_humidity;BME280_pressure;Samples;Min_cycle;Max_cycle;Signal;HPM_P1;HPM_P2
2023/08/08 00:01:54;;;;;;;;;;;22.50;60.70;;;;;;8355736;28;20333;-73
2023/08/08 00:05:55;;;;;;;;;;;22.60;60.50;;;;;;8394962;28;19913;-74
2023/08/08 00:09:56;;;;;;;;;;;22.50;60.50;;;;;;8394844;28;20275;-74
2023/08/08 00:13:57;;;;;;;;;;;22.60;60.30;;;;;;8394573;28;20351;-74
2023/08/08 00:17:57;;;;;;;;;;;22.60;60.50;;;;;;8376777;28;19975;-74
2023/08/08 00:21:58;;;;;;;;;;;22.50;60.20;;;;;;8394509;28;19916;-74
2023/08/08 00:25:58;;;;;;;;;;;22.50;60.30;;;;;;8375491;28;20311;-74
2023/08/08 00:29:59;;;;;;;;;;;22.50;60.20;;;;;;8376662;28;19913;-74
2023/08/08 00:33:59;;;;;;;;;;;22.50;60.30;;;;;;8394425;28;19913;-74
2023/08/08 00:38:00;;;;;;;;;;;22.50;60.30;;;;;;8394083;28;19912;-73
2023/08/08 00:42:00;;;;;;;;;;;22.50;60.30;;;;;;8376411;28;19909;-74
2023/08/08 00:46:01;;;;;;;;;;;22.50;60.30;;;;;;8394581;28;19912;-74
2023/08/08 00:50:03;;;;;;;;;;;22.50;60.30;;;;;;8394004;28;19967;-73
2023/08/08 00:54:04;;;;;;;;;;;22.40;60.20;;;;;;8394695;28;19912;-74
2023/08/08 00:58:04;;;;;;;;;;;22.50;60.40;;;;;;8365930;28;19924;-74
2023/08/08 01:02:05;;;;;;;;;;;22.40;60.30;;;;;;8360620;28;19919;-74
2023/08/08 01:06:10;;;;;;;;;;;22.40;60.30;;;;;;8342938;28;19913;-74
2023/08/08 01:10:11;;;;;;;;;;;22.40;60.20;;;;;;8342411;28;19996;-74
2023/08/08 01:14:11;;;;;;;;;;;22.40;60.10;;;;;;8360469;28;19923;-74
2023/08/08 01:18:14;;;;;;;;;;;22.40;60.10;;;;;;8360639;28;20389;-74
2023/08/08 01:22:22;;;;;;;;;;;22.40;60.00;;;;;;8361849;28;19913;-74
2023/08/08 01:26:23;;;;;;;;;;;22.50;60.10;;;;;;8393560;28;19908;-74
2023/08/08 01:30:23;;;;;;;;;;;22.40;60.00;;;;;;8394575;28;19955;-74
2023/08/08 01:34:24;;;;;;;;;;;22.40;60.00;;;;;;8394284;28;19916;-73
2023/08/08 01:38:28;;;;;;;;;;;22.40;60.00;;;;;;8400323;28;19909;-74
2023/08/08 01:42:29;;;;;;;;;;;22.40;59.90;;;;;;8400995;28;20401;-73
2023/08/08 01:46:30;;;;;;;;;;;22.40;59.90;;;;;;8401107;28;20316;-74
2023/08/08 01:50:30;;;;;;;;;;;22.40;59.90;;;;;;8383793;28;20200;-74
2023/08/08 01:54:31;;;;;;;;;;;22.40;59.90;;;;;;8402005;28;19916;-74
2023/08/08 01:58:31;;;;;;;;;;;22.40;59.90;;;;;;8414353;28;19919;-74
2023/08/08 02:02:32;;;;;;;;;;;22.40;59.90;;;;;;8407926;28;19914;-74
2023/08/08 02:06:32;;;;;;;;;;;22.40;59.90;;;;;;8393633;28;19913;-73
2023/08/08 02:10:33;;;;;;;;;;;22.40;59.90;;;;;;8433388;28;19964;-73
2023/08/08 02:14:33;;;;;;;;;;;22.40;59.90;;;;;;8439944;28;19908;-73
2023/08/08 02:18:34;;;;;;;;;;;22.40;59.90;;;;;;8406320;28;19972;-73
2023/08/08 02:22:34;;;;;;;;;;;22.40;59.90;;;;;;8416581;28;19966;-74
2023/08/08 02:26:35;;;;;;;;;;;22.40;59.90;;;;;;8382047;28;19912;-74
2023/08/08 02:30:36;;;;;;;;;;;22.40;59.90;;;;;;8381973;28;19912;-74
2023/08/08 02:34:36;;;;;;;;;;;22.40;59.80;;;;;;8381174;28;20344;-73
2023/08/08 02:38:37;;;;;;;;;;;22.40;59.80;;;;;;8380143;28;19917;-74
2023/08/08 02:42:37;;;;;;;;;;;22.40;59.90;;;;;;8397758;28;19919;-74
2023/08/08 02:46:38;;;;;;;;;;;22.30;59.90;;;;;;8378969;28;20007;-74
2023/08/08 02:50:38;;;;;;;;;;;22.30;59.90;;;;;;8379516;28;20471;-74
2023/08/08 02:54:39;;;;;;;;;;;22.30;59.90;;;;;;8379571;28;19923;-74
2023/08/08 02:58:39;;;;;;;;;;;22.30;60.00;;;;;;8379913;28;19913;-74
2023/08/08 03:02:40;;;;;;;;;;;22.30;60.00;;;;;;8379812;28;20011;-74
2023/08/08 03:06:40;;;;;;;;;;;22.30;60.00;;;;;;8397703;28;19958;-74
2023/08/08 03:10:41;;;;;;;;;;;22.30;59.90;;;;;;8362793;28;20387;-74
2023/08/08 03:14:41;;;;;;;;;;;22.30;60.00;;;;;;8397408;28;19913;-74
2023/08/08 03:18:42;;;;;;;;;;;22.30;60.00;;;;;;8378842;28;19940;-74
2023/08/08 03:22:42;;;;;;;;;;;22.20;60.00;;;;;;8378362;28;19916;-74
2023/08/08 03:26:43;;;;;;;;;;;22.20;60.10;;;;;;8396000;28;19915;-74
2023/08/08 03:30:43;;;;;;;;;;;22.20;60.10;;;;;;8396026;28;20217;-73
2023/08/08 03:34:44;;;;;;;;;;;22.20;60.10;;;;;;8378076;28;20370;-74
2023/08/08 03:38:45;;;;;;;;;;;22.20;60.10;;;;;;8377956;28;19987;-74
2023/08/08 03:42:46;;;;;;;;;;;22.20;60.10;;;;;;8377471;28;19913;-73
2023/08/08 03:46:47;;;;;;;;;;;22.20;60.10;;;;;;8377554;28;19919;-74
2023/08/08 03:50:47;;;;;;;;;;;22.20;60.10;;;;;;8395177;28;20294;-74
2023/08/08 03:54:48;;;;;;;;;;;22.20;60.10;;;;;;8360607;28;20338;-74
2023/08/08 03:58:48;;;;;;;;;;;22.20;60.00;;;;;;8377171;28;19924;-74
2023/08/08 04:02:49;;;;;;;;;;;22.20;60.00;;;;;;8395035;28;19916;-74
2023/08/08 04:06:49;;;;;;;;;;;22.20;60.00;;;;;;8376970;28;20301;-73
2023/08/08 04:10:50;;;;;;;;;;;22.20;60.00;;;;;;8394610;28;19931;-74
2023/08/08 04:14:50;;;;;;;;;;;22.20;60.00;;;;;;8394613;28;19948;-74
2023/08/08 04:18:51;;;;;;;;;;;22.20;60.00;;;;;;8395021;28;20262;-74
2023/08/08 04:22:51;;;;;;;;;;;22.20;60.00;;;;;;8376619;28;20011;-74
2023/08/08 04:26:52;;;;;;;;;;;22.20;60.00;;;;;;8376224;28;19908;-74
2023/08/08 04:30:52;;;;;;;;;;;22.20;60.00;;;;;;8394290;28;19939;-74
2023/08/08 04:34:53;;;;;;;;;;;22.20;60.00;;;;;;8394478;28;19958;-74
2023/08/08 04:38:53;;;;;;;;;;;22.20;59.90;;;;;;8376306;28;19913;-74
2023/08/08 04:42:54;;;;;;;;;;;22.20;59.90;;;;;;8394262;28;19916;-73
2023/08/08 04:46:55;;;;;;;;;;;22.20;60.60;;;;;;8394118;28;20301;-74
2023/08/08 04:50:55;;;;;;;;;;;22.20;59.90;;;;;;8393815;28;19913;-74
2023/08/08 04:54:56;;;;;;;;;;;22.20;59.80;;;;;;8359593;28;19912;-74
2023/08/08 04:58:56;;;;;;;;;;;22.20;59.90;;;;;;8359444;28;19958;-74
2023/08/08 05:02:57;;;;;;;;;;;22.20;59.90;;;;;;8375751;28;19920;-74
2023/08/08 05:06:57;;;;;;;;;;;22.20;59.90;;;;;;8376008;28;19908;-74
2023/08/08 05:10:58;;;;;;;;;;;22.20;59.90;;;;;;8395400;28;19924;-74
2023/08/08 05:14:59;;;;;;;;;;;22.20;59.80;;;;;;8382510;28;19917;-74
2023/08/08 05:18:59;;;;;;;;;;;22.20;59.90;;;;;;8382593;28;19963;-74
2023/08/08 05:23:00;;;;;;;;;;;22.20;59.80;;;;;;8400061;28;19909;-74
2023/08/08 05:27:00;;;;;;;;;;;22.20;59.80;;;;;;8382255;28;19912;-74
2023/08/08 05:31:01;;;;;;;;;;;22.20;59.80;;;;;;8382139;28;19973;-74
2023/08/08 05:35:04;;;;;;;;;;;22.20;59.80;;;;;;8381683;28;20535;-73
2023/08/08 05:39:06;;;;;;;;;;;22.20;59.90;;;;;;8365116;28;19908;-74
2023/08/08 05:43:08;;;;;;;;;;;22.20;59.90;;;;;;8399571;28;19912;-74
2023/08/08 05:47:08;;;;;;;;;;;22.20;59.90;;;;;;8399275;28;20297;-74
2023/08/08 05:51:09;;;;;;;;;;;22.20;60.00;;;;;;8399095;28;20340;-74
2023/08/08 05:55:09;;;;;;;;;;;22.20;60.00;;;;;;8399092;28;20287;-74
2023/08/08 05:59:10;;;;;;;;;;;22.20;59.90;;;;;;8381116;28;20007;-74
2023/08/08 06:03:11;;;;;;;;;;;22.20;59.90;;;;;;8399021;28;20396;-74
2023/08/08 06:07:11;;;;;;;;;;;22.20;59.90;;;;;;8398627;28;20328;-74
2023/08/08 06:11:12;;;;;;;;;;;22.20;59.90;;;;;;8398472;28;19925;-74
2023/08/08 06:15:12;;;;;;;;;;;22.20;59.90;;;;;;8380766;28;19913;-74
2023/08/08 06:19:14;;;;;;;;;;;22.20;59.90;;;;;;8398373;28;19912;-74
2023/08/08 06:23:15;;;;;;;;;;;22.20;59.80;;;;;;8380322;28;20389;-74
2023/08/08 06:27:16;;;;;;;;;;;22.20;59.80;;;;;;8380213;28;20363;-74
2023/08/08 06:31:18;;;;;;;;;;;22.20;59.90;;;;;;8346874;28;19920;-73
2023/08/08 06:35:18;;;;;;;;;;;22.20;59.80;;;;;;8380073;28;19909;-74
2023/08/08 06:39:21;;;;;;;;;;;22.20;59.80;;;;;;8397865;28;19980;-74
2023/08/08 06:43:21;;;;;;;;;;;22.20;59.90;;;;;;8363049;28;20361;-74
2023/08/08 06:47:22;;;;;;;;;;;22.20;59.80;;;;;;8363058;28;20363;-74
2023/08/08 06:51:23;;;;;;;;;;;22.20;59.90;;;;;;8397294;28;19923;-74
2023/08/08 06:55:24;;;;;;;;;;;22.20;59.90;;;;;;8397087;28;20328;-74
2023/08/08 06:59:25;;;;;;;;;;;22.20;59.90;;;;;;8379423;28;19978;-74
2023/08/08 07:03:26;;;;;;;;;;;22.20;60.00;;;;;;8396899;28;19915;-74
2023/08/08 07:07:27;;;;;;;;;;;22.20;60.00;;;;;;8396888;28;19916;-74
2023/08/08 07:11:28;;;;;;;;;;;22.20;60.00;;;;;;8362280;28;19925;-74
2023/08/08 07:15:28;;;;;;;;;;;22.20;59.90;;;;;;8363432;28;19976;-74
2023/08/08 07:19:29;;;;;;;;;;;22.20;59.90;;;;;;8345736;28;20031;-74
2023/08/08 07:23:30;;;;;;;;;;;22.20;59.90;;;;;;8363300;28;19913;-74
2023/08/08 07:27:30;;;;;;;;;;;22.20;59.90;;;;;;8361712;28;19913;-74
2023/08/08 07:31:31;;;;;;;;;;;22.20;59.90;;;;;;8361777;28;19977;-74
2023/08/08 07:35:32;;;;;;;;;;;22.20;59.90;;;;;;8361093;28;19909;-74
2023/08/08 07:39:33;;;;;;;;;;;22.30;60.00;;;;;;8362734;28;20267;-74
2023/08/08 07:43:33;;;;;;;;;;;22.20;59.90;;;;;;8363020;28;19971;-74
2023/08/08 07:47:34;;;;;;;;;;;22.20;59.90;;;;;;8362601;28;19919;-74
2023/08/08 07:51:35;;;;;;;;;;;22.20;59.90;;;;;;8361037;28;20016;-73
2023/08/08 07:55:35;;;;;;;;;;;22.20;59.90;;;;;;8360873;28;19909;-74
2023/08/08 07:59:36;;;;;;;;;;;22.20;59.90;;;;;;8344241;28;20046;-74
2023/08/08 08:03:37;;;;;;;;;;;22.20;60.00;;;;;;8362017;28;19913;-73
2023/08/08 08:07:38;;;;;;;;;;;22.20;60.00;;;;;;8361991;28;20007;-74
2023/08/08 08:11:38;;;;;;;;;;;22.20;60.10;;;;;;8343658;28;20020;-74
2023/08/08 08:15:39;;;;;;;;;;;22.20;60.10;;;;;;8343906;28;19966;-74
2023/08/08 08:19:39;;;;;;;;;;;22.20;60.10;;;;;;8343665;28;19913;-74
2023/08/08 08:23:40;;;;;;;;;;;22.20;60.00;;;;;;8361270;28;19908;-74
2023/08/08 08:27:41;;;;;;;;;;;22.20;60.10;;;;;;8343778;28;20286;-74
2023/08/08 08:31:41;;;;;;;;;;;22.20;60.10;;;;;;8361296;28;20384;-74
2023/08/08 08:35:42;;;;;;;;;;;22.20;60.00;;;;;;8361214;28;20003;-74
2023/08/08 08:39:42;;;;;;;;;;;22.20;60.10;;;;;;8361038;28;19948;-74
2023/08/08 08:43:43;;;;;;;;;;;22.20;60.00;;;;;;8359825;28;19913;-74
2023/08/08 08:47:45;;;;;;;;;;;22.20;60.00;;;;;;8359201;28;20405;-74
2023/08/08 08:51:47;;;;;;;;;;;22.20;60.10;;;;;;8342659;28;19912;-74
2023/08/08 08:55:48;;;;;;;;;;;22.20;60.10;;;;;;8342829;28;20321;-74
2023/08/08 08:59:49;;;;;;;;;;;22.20;60.10;;;;;;8360742;28;20151;-74
2023/08/08 09:03:49;;;;;;;;;;;22.20;60.00;;;;;;8360650;28;19939;-74
2023/08/08 09:07:51;;;;;;;;;;;22.20;60.00;;;;;;8360842;28;20385;-74
2023/08/08 09:11:54;;;;;;;;;;;22.20;60.10;;;;;;8350975;28;20266;-74
2023/08/08 09:15:55;;;;;;;;;;;22.20;60.20;;;;;;8394112;28;19908;-74
2023/08/08 09:19:56;;;;;;;;;;;22.20;60.20;;;;;;8394378;28;20488;-74
2023/08/08 09:23:56;;;;;;;;;;;22.20;60.20;;;;;;8394694;28;19909;-74
2023/08/08 09:27:57;;;;;;;;;;;22.20;60.30;;;;;;8376783;28;19917;-74
2023/08/08 09:31:57;;;;;;;;;;;22.20;60.20;;;;;;8394606;28;19916;-73
2023/08/08 09:35:58;;;;;;;;;;;22.20;60.20;;;;;;8395735;28;20358;-74
2023/08/08 09:39:59;;;;;;;;;;;22.20;60.10;;;;;;8377199;28;19913;-74
2023/08/08 09:44:00;;;;;;;;;;;22.20;60.10;;;;;;8394640;28;19973;-73
2023/08/08 09:48:01;;;;;;;;;;;22.20;60.10;;;;;;8360080;28;19913;-74
2023/08/08 09:52:02;;;;;;;;;;;22.20;60.10;;;;;;8394792;28;19959;-74
2023/08/08 09:56:03;;;;;;;;;;;22.20;60.10;;;;;;8376927;28;19913;-74
2023/08/08 10:00:05;;;;;;;;;;;22.20;60.10;;;;;;8383213;28;19915;-74
2023/08/08 10:04:06;;;;;;;;;;;22.20;60.20;;;;;;8402884;28;19977;-74
2023/08/08 10:08:07;;;;;;;;;;;22.20;60.20;;;;;;8403466;28;19909;-74
2023/08/08 10:12:08;;;;;;;;;;;22.20;60.10;;;;;;8385030;28;20389;-74
2023/08/08 10:16:09;;;;;;;;;;;22.20;60.10;;;;;;8369189;28;19909;-74
2023/08/08 10:20:17;;;;;;;;;;;22.20;60.10;;;;;;8365008;28;19974;-74
2023/08/08 10:24:20;;;;;;;;;;;22.20;60.10;;;;;;8400245;28;19912;-74
2023/08/08 10:28:20;;;;;;;;;;;22.20;60.10;;;;;;8381194;28;19912;-74
2023/08/08 10:32:25;;;;;;;;;;;22.20;60.20;;;;;;8398250;28;20366;-74
2023/08/08 10:36:26;;;;;;;;;;;22.20;60.30;;;;;;8398135;28;19908;-74
2023/08/08 10:40:32;;;;;;;;;;;22.20;60.20;;;;;;8380323;28;19963;-74
2023/08/08 10:44:41;;;;;;;;;;;22.20;60.20;;;;;;8380010;28;19915;-74
2023/08/08 10:48:54;;;;;;;;;;;22.20;60.20;;;;;;8379808;28;19909;-74
2023/08/08 10:52:55;;;;;;;;;;;22.20;60.30;;;;;;8380345;28;19934;-74
2023/08/08 10:56:56;;;;;;;;;;;22.20;60.30;;;;;;8397942;28;19931;-74
2023/08/08 11:00:57;;;;;;;;;;;22.20;60.20;;;;;;8398527;28;19958;-74
2023/08/08 11:04:58;;;;;;;;;;;22.20;60.20;;;;;;8379877;28;19912;-74
2023/08/08 11:09:00;;;;;;;;;;;22.20;60.20;;;;;;8378888;28;19917;-74
2023/08/08 11:13:03;;;;;;;;;;;22.20;60.20;;;;;;8397018;28;20445;-74
2023/08/08 11:17:03;;;;;;;;;;;22.20;60.20;;;;;;8346218;28;20431;-74
2023/08/08 11:21:09;;;;;;;;;;;22.20;60.20;;;;;;8396483;28;20395;-74
2023/08/08 11:25:09;;;;;;;;;;;22.20;60.20;;;;;;8378216;28;20370;-74
2023/08/08 11:29:10;;;;;;;;;;;22.20;60.20;;;;;;8396168;28;20285;-74
2023/08/08 11:33:15;;;;;;;;;;;22.30;60.30;;;;;;8396160;28;19912;-74
2023/08/08 11:37:15;;;;;;;;;;;22.20;60.20;;;;;;8378405;28;19913;-74
2023/08/08 11:41:17;;;;;;;;;;;22.20;60.20;;;;;;8395933;28;19920;-74
2023/08/08 11:45:18;;;;;;;;;;;22.20;60.30;;;;;;8377875;28;19908;-74
2023/08/08 11:49:19;;;;;;;;;;;22.20;60.20;;;;;;8360980;28;19926;-74
2023/08/08 11:53:19;;;;;;;;;;;22.20;60.20;;;;;;8360883;28;19922;-74
2023/08/08 11:57:20;;;;;;;;;;;22.20;60.30;;;;;;8395244;28;19983;-74
2023/08/08 12:01:25;;;;;;;;;;;22.20;60.20;;;;;;8377428;28;19919;-74
2023/08/08 12:05:25;;;;;;;;;;;22.20;60.20;;;;;;8395106;28;19909;-74
2023/08/08 12:09:32;;;;;;;;;;;22.20;60.20;;;;;;8394759;28;19974;-74
2023/08/08 12:13:35;;;;;;;;;;;22.20;60.20;;;;;;8394805;28;20003;-74
2023/08/08 12:17:36;;;;;;;;;;;22.20;60.20;;;;;;8376878;28;19919;-74
2023/08/08 12:21:37;;;;;;;;;;;22.30;60.20;;;;;;8376560;28;20297;-74
2023/08/08 12:25:38;;;;;;;;;;;22.30;60.30;;;;;;8376499;28;20024;-74
2023/08/08 12:29:38;;;;;;;;;;;22.20;60.20;;;;;;8376322;28;19908;-74
2023/08/08 12:33:39;;;;;;;;;;;22.30;60.30;;;;;;8376504;28;19916;-75
2023/08/08 12:37:39;;;;;;;;;;;22.30;60.20;;;;;;8394233;28;19923;-74
2023/08/08 12:41:40;;;;;;;;;;;22.30;60.20;;;;;;8394286;28;20405;-74
2023/08/08 12:45:41;;;;;;;;;;;22.30;60.20;;;;;;8394258;28;19967;-74
2023/08/08 12:49:41;;;;;;;;;;;22.30;60.20;;;;;;8394095;28;19913;-74
2023/08/08 12:53:42;;;;;;;;;;;22.30;60.20;;;;;;8375974;28;19958;-74
2023/08/08 12:57:43;;;;;;;;;;;22.20;60.10;;;;;;8376000;28;19913;-74
2023/08/08 13:01:43;;;;;;;;;;;22.20;60.10;;;;;;8375858;28;20290;-74
2023/08/08 13:05:44;;;;;;;;;;;22.20;60.70;;;;;;8393902;28;20290;-74
2023/08/08 13:09:44;;;;;;;;;;;22.20;60.20;;;;;;8393658;28;19928;-74
2023/08/08 13:14:03;;;;;;;;;;;22.20;60.30;;;;;;8375594;28;19917;-74
2023/08/08 13:18:04;;;;;;;;;;;22.30;60.30;;;;;;8394258;28;20013;-74
2023/08/08 13:22:04;;;;;;;;;;;22.30;60.20;;;;;;8358881;28;19917;-74
2023/08/08 13:26:05;;;;;;;;;;;22.30;60.20;;;;;;8358764;28;19919;-74
2023/08/08 13:30:07;;;;;;;;;;;22.30;60.20;;;;;;8376016;28;20007;-74
2023/08/08 13:34:07;;;;;;;;;;;22.30;60.20;;;;;;8399167;28;19963;-75
2023/08/08 13:38:14;;;;;;;;;;;22.30;60.20;;;;;;8399526;28;19920;-74
2023/08/08 13:42:16;;;;;;;;;;;22.30;60.20;;;;;;8399285;28;20390;-74
2023/08/08 13:46:17;;;;;;;;;;;22.30;60.10;;;;;;8399452;28;20003;-74
2023/08/08 13:50:17;;;;;;;;;;;22.30;60.10;;;;;;8399097;28;19908;-73
2023/08/08 13:54:18;;;;;;;;;;;22.30;60.10;;;;;;8399198;28;19919;-74
2023/08/08 13:58:21;;;;;;;;;;;22.30;60.10;;;;;;8399034;28;20365;-74
2023/08/08 14:02:22;;;;;;;;;;;22.30;60.00;;;;;;8398975;28;19919;-74
2023/08/08 14:06:22;;;;;;;;;;;22.30;60.10;;;;;;8399241;28;19913;-74
2023/08/08 14:10:23;;;;;;;;;;;22.30;60.10;;;;;;8398643;28;20310;-74
2023/08/08 14:14:24;;;;;;;;;;;22.30;60.10;;;;;;8398883;28;19927;-74
2023/08/08 14:18:24;;;;;;;;;;;22.30;60.10;;;;;;8380601;28;19917;-74
2023/08/08 14:22:25;;;;;;;;;;;22.30;60.10;;;;;;8398285;28;20309;-74
2023/08/08 14:26:25;;;;;;;;;;;22.30;60.20;;;;;;8398159;28;19913;-74
2023/08/08 14:30:27;;;;;;;;;;;22.30;60.10;;;;;;8363829;28;19915;-74
2023/08/08 14:34:31;;;;;;;;;;;22.30;60.10;;;;;;8397851;28;19916;-74
2023/08/08 14:38:34;;;;;;;;;;;22.30;60.10;;;;;;8397669;28;19909;-75
2023/08/08 14:42:35;;;;;;;;;;;22.30;60.10;;;;;;8396703;28;19908;-74
2023/08/08 14:46:35;;;;;;;;;;;22.30;60.20;;;;;;8379428;28;19920;-74
2023/08/08 14:50:36;;;;;;;;;;;22.30;60.20;;;;;;8397422;28;20305;-74
2023/08/08 14:54:37;;;;;;;;;;;22.30;60.10;;;;;;8379442;28;19923;-74
2023/08/08 14:58:37;;;;;;;;;;;22.30;60.20;;;;;;8397186;28;19970;-74
2023/08/08 15:02:38;;;;;;;;;;;22.30;60.20;;;;;;8396874;28;20318;-74
2023/08/08 15:06:40;;;;;;;;;;;22.40;60.30;;;;;;8362477;28;19912;-74
2023/08/08 15:10:40;;;;;;;;;;;22.40;60.10;;;;;;8396636;28;19959;-74
2023/08/08 15:14:41;;;;;;;;;;;22.30;60.00;;;;;;8378706;28;19983;-74
2023/08/08 15:18:41;;;;;;;;;;;22.30;60.00;;;;;;8396598;28;20007;-74
2023/08/08 15:22:42;;;;;;;;;;;22.30;60.10;;;;;;8396427;28;19909;-74
2023/08/08 15:26:42;;;;;;;;;;;22.30;60.10;;;;;;8378074;28;19962;-74
2023/08/08 15:30:43;;;;;;;;;;;22.30;60.40;;;;;;8378812;28;19920;-74
2023/08/08 15:34:44;;;;;;;;;;;22.30;60.30;;;;;;8378072;28;19913;-74
2023/08/08 15:38:44;;;;;;;;;;;22.30;60.20;;;;;;8395895;28;19979;-74
2023/08/08 15:42:45;;;;;;;;;;;22.30;60.20;;;;;;8378027;28;19913;-75
2023/08/08 15:46:45;;;;;;;;;;;22.30;60.10;;;;;;8395706;28;20006;-74
2023/08/08 15:50:46;;;;;;;;;;;22.30;60.10;;;;;;8395553;28;19913;-74
2023/08/08 15:54:47;;;;;;;;;;;22.30;60.10;;;;;;8377028;28;19924;-74
2023/08/08 15:58:47;;;;;;;;;;;22.30;60.10;;;;;;8377349;28;20357;-74
2023/08/08 16:02:48;;;;;;;;;;;22.30;60.20;;;;;;8377520;28;19913;-74
2023/08/08 16:06:48;;;;;;;;;;;22.30;60.20;;;;;;8360556;28;19916;-74
2023/08/08 16:10:49;;;;;;;;;;;22.30;60.20;;;;;;8394743;28;19925;-74
2023/08/08 16:14:50;;;;;;;;;;;22.30;60.20;;;;;;8376920;28;20072;-74
2023/08/08 16:18:50;;;;;;;;;;;22.30;60.20;;;;;;8394695;28;19917;-74
2023/08/08 16:22:51;;;;;;;;;;;22.40;60.50;;;;;;8394358;28;20441;-74
2023/08/08 16:26:51;;;;;;;;;;;22.40;60.90;;;;;;8394454;28;19912;-74
2023/08/08 16:30:52;;;;;;;;;;;22.40;61.00;;;;;;8376586;28;20385;-74
2023/08/08 16:34:53;;;;;;;;;;;22.40;60.00;;;;;;8388324;28;19920;-74
2023/08/08 16:38:53;;;;;;;;;;;22.40;58.70;;;;;;8326523;28;19917;-74
2023/08/08 16:42:54;;;;;;;;;;;22.40;59.40;;;;;;8364762;28;20377;-75
2023/08/08 16:46:54;;;;;;;;;;;22.50;58.80;;;;;;8372483;28;19913;-75
2023/08/08 16:50:56;;;;;;;;;;;22.40;58.10;;;;;;8374834;28;19947;-74
2023/08/08 16:54:56;;;;;;;;;;;22.40;58.00;;;;;;8389169;28;19923;-73
2023/08/08 16:58:57;;;;;;;;;;;22.40;57.10;;;;;;8382181;28;19936;-72
2023/08/08 17:02:58;;;;;;;;;;;22.50;57.40;;;;;;8362211;28;19920;-72
2023/08/08 17:06:58;;;;;;;;;;;22.60;57.60;;;;;;8385442;28;19916;-71
2023/08/08 17:10:59;;;;;;;;;;;22.70;57.10;;;;;;8382570;28;20344;-72
2023/08/08 17:14:59;;;;;;;;;;;22.70;57.80;;;;;;8379021;28;19924;-71
2023/08/08 17:19:00;;;;;;;;;;;22.70;57.60;;;;;;8362223;28;20271;-72
2023/08/08 17:23:00;;;;;;;;;;;22.70;57.30;;;;;;8362020;28;19916;-74
2023/08/08 17:27:01;;;;;;;;;;;22.70;56.60;;;;;;8376999;28;19932;-73
2023/08/08 17:31:02;;;;;;;;;;;22.70;56.20;;;;;;8379172;28;19944;-71
2023/08/08 17:35:03;;;;;;;;;;;22.70;55.70;;;;;;8379233;28;20408;-74
2023/08/08 17:39:03;;;;;;;;;;;22.70;55.90;;;;;;8386779;28;19966;-73
2023/08/08 17:43:04;;;;;;;;;;;22.70;55.20;;;;;;8366095;28;20305;-74
2023/08/08 17:47:04;;;;;;;;;;;22.70;55.30;;;;;;8360892;28;19928;-75
2023/08/08 17:51:06;;;;;;;;;;;22.70;55.00;;;;;;8379429;28;20635;-71
2023/08/08 17:55:07;;;;;;;;;;;22.70;54.60;;;;;;8377339;28;19921;-74
2023/08/08 17:59:07;;;;;;;;;;;22.70;54.10;;;;;;8382989;28;19962;-76
2023/08/08 18:03:08;;;;;;;;;;;22.80;53.60;;;;;;8383929;28;19924;-74
2023/08/08 18:07:09;;;;;;;;;;;22.80;53.70;;;;;;8385259;28;19912;-74
2023/08/08 18:11:10;;;;;;;;;;;22.90;54.00;;;;;;8328979;28;20391;-72
2023/08/08 18:15:11;;;;;;;;;;;22.90;54.40;;;;;;8335917;28;19925;-77
2023/08/08 18:19:11;;;;;;;;;;;22.90;54.60;;;;;;8344765;28;19929;-81
2023/08/08 18:23:12;;;;;;;;;;;22.90;54.00;;;;;;8343327;28;19921;-74
2023/08/08 18:27:13;;;;;;;;;;;22.90;53.20;;;;;;8343995;28;19917;-76
2023/08/08 18:31:13;;;;;;;;;;;22.80;54.10;;;;;;8343499;28;20302;-72
2023/08/08 18:35:14;;;;;;;;;;;23.00;53.30;;;;;;8332830;28;19967;-75
2023/08/08 18:39:14;;;;;;;;;;;23.00;53.10;;;;;;8325940;28;19923;-73
2023/08/08 18:43:15;;;;;;;;;;;23.00;53.00;;;;;;8342531;28;19937;-73
2023/08/08 18:47:15;;;;;;;;;;;23.00;52.90;;;;;;8341543;28;19956;-77
2023/08/08 18:51:16;;;;;;;;;;;22.90;52.70;;;;;;8342901;28;19916;-76
2023/08/08 18:55:16;;;;;;;;;;;22.90;52.40;;;;;;8340415;28;20305;-77
2023/08/08 18:59:17;;;;;;;;;;;22.90;52.60;;;;;;8339967;28;19917;-72
2023/08/08 19:03:18;;;;;;;;;;;22.80;52.30;;;;;;8342118;28;20388;-70
2023/08/08 19:07:18;;;;;;;;;;;22.80;51.80;;;;;;8342883;28;19921;-70
2023/08/08 19:11:19;;;;;;;;;;;22.70;51.00;;;;;;8359917;28;21112;-80
2023/08/08 19:15:20;;;;;;;;;;;22.80;50.60;;;;;;8322772;28;19929;-76
2023/08/08 19:19:21;;;;;;;;;;;22.80;51.40;;;;;;8373174;28;20326;-81
2023/08/08 19:23:21;;;;;;;;;;;22.80;52.00;;;;;;8373438;28;19943;-75
2023/08/08 19:27:22;;;;;;;;;;;22.90;52.60;;;;;;8371606;28;19916;-82
2023/08/08 19:31:22;;;;;;;;;;;22.90;53.10;;;;;;8371802;28;20308;-76
2023/08/08 19:35:23;;;;;;;;;;;23.00;53.80;;;;;;8356164;28;20621;-76
2023/08/08 19:39:24;;;;;;;;;;;22.90;53.80;;;;;;8356642;28;20424;-77
2023/08/08 19:43:24;;;;;;;;;;;23.00;55.20;;;;;;8355695;28;19924;-78
2023/08/08 19:47:25;;;;;;;;;;;23.00;54.70;;;;;;8352821;28;19974;-78
2023/08/08 19:51:27;;;;;;;;;;;23.00;55.30;;;;;;8372126;28;19954;-78
2023/08/08 19:55:28;;;;;;;;;;;23.00;55.50;;;;;;8372862;28;20014;-79
2023/08/08 19:59:28;;;;;;;;;;;23.00;55.20;;;;;;8372379;28;19924;-75
2023/08/08 20:03:29;;;;;;;;;;;23.10;55.30;;;;;;8372112;28;19924;-73
2023/08/08 20:07:30;;;;;;;;;;;23.20;55.80;;;;;;8352063;28;20436;-76
2023/08/08 20:11:30;;;;;;;;;;;23.10;55.70;;;;;;8320770;28;20962;-74
2023/08/08 20:15:31;;;;;;;;;;;23.10;55.90;;;;;;8338873;28;19916;-72
2023/08/08 20:19:31;;;;;;;;;;;23.10;56.20;;;;;;8338173;28;19959;-74
2023/08/08 20:23:32;;;;;;;;;;;23.00;56.40;;;;;;8338320;28;19921;-74
2023/08/08 20:27:32;;;;;;;;;;;23.10;56.20;;;;;;8353845;28;19930;-76
2023/08/08 20:31:33;;;;;;;;;;;23.00;56.00;;;;;;8337216;28;20222;-76
2023/08/08 20:35:34;;;;;;;;;;;23.00;55.70;;;;;;8354230;28;19914;-75
2023/08/08 20:39:34;;;;;;;;;;;23.00;56.10;;;;;;8338860;28;19917;-76
2023/08/08 20:43:35;;;;;;;;;;;22.90;56.30;;;;;;8338957;28;19913;-77
2023/08/08 20:47:35;;;;;;;;;;;22.90;56.50;;;;;;8312620;28;20500;-77
2023/08/08 20:51:36;;;;;;;;;;;22.90;57.10;;;;;;8345717;28;20374;-75
2023/08/08 20:55:36;;;;;;;;;;;23.00;56.60;;;;;;8345580;28;19925;-74
2023/08/08 20:59:37;;;;;;;;;;;23.00;56.80;;;;;;8337378;28;19920;-74
2023/08/08 21:03:38;;;;;;;;;;;23.00;57.10;;;;;;8353646;28;19951;-77
2023/08/08 21:07:38;;;;;;;;;;;23.00;57.00;;;;;;8338195;28;20370;-77
2023/08/08 21:11:39;;;;;;;;;;;22.90;56.20;;;;;;8320212;28;19940;-77
2023/08/08 21:15:39;;;;;;;;;;;22.80;55.90;;;;;;8336766;28;20816;-73
2023/08/08 21:19:40;;;;;;;;;;;22.70;53.90;;;;;;8337055;28;20334;-75
2023/08/08 21:23:40;;;;;;;;;;;22.60;53.50;;;;;;8320653;28;19928;-76
2023/08/08 21:27:41;;;;;;;;;;;22.60;54.00;;;;;;8319942;28;19921;-75
2023/08/08 21:31:41;;;;;;;;;;;22.60;53.60;;;;;;8336593;28;20371;-77
2023/08/08 21:35:42;;;;;;;;;;;22.60;53.30;;;;;;8336488;28;20277;-78
2023/08/08 21:39:42;;;;;;;;;;;22.60;53.30;;;;;;8337998;28;20315;-76
2023/08/08 21:43:43;;;;;;;;;;;22.60;52.90;;;;;;8337754;28;20263;-77
2023/08/08 21:47:43;;;;;;;;;;;22.70;52.80;;;;;;8339953;28;19924;-74
2023/08/08 21:51:44;;;;;;;;;;;22.70;53.00;;;;;;8338271;28;19925;-77
2023/08/08 21:55:44;;;;;;;;;;;22.70;53.20;;;;;;8346520;28;19913;-78
2023/08/08 21:59:45;;;;;;;;;;;22.80;53.30;;;;;;8340740;28;19913;-76
2023/08/08 22:03:46;;;;;;;;;;;22.90;54.30;;;;;;8336750;28;20267;-77
2023/08/08 22:07:46;;;;;;;;;;;22.90;54.30;;;;;;8355798;28;19940;-79
2023/08/08 22:11:47;;;;;;;;;;;23.00;53.80;;;;;;8366604;28;19932;-77
2023/08/08 22:15:48;;;;;;;;;;;23.00;53.90;;;;;;8367963;28;20271;-77
2023/08/08 22:19:48;;;;;;;;;;;23.00;54.10;;;;;;8368047;28;19967;-77
2023/08/08 22:23:49;;;;;;;;;;;22.90;54.20;;;;;;8343423;28;20027;-77
2023/08/08 22:27:50;;;;;;;;;;;22.90;54.20;;;;;;8344834;28;19924;-78
2023/08/08 22:31:51;;;;;;;;;;;23.00;54.50;;;;;;8345262;28;19921;-78
2023/08/08 22:35:52;;;;;;;;;;;23.00;54.60;;;;;;8343720;28;19971;-78
2023/08/08 22:39:52;;;;;;;;;;;22.90;55.10;;;;;;8344888;28;19908;-78
2023/08/08 22:43:53;;;;;;;;;;;23.00;55.80;;;;;;8343811;28;19967;-78
2023/08/08 22:47:54;;;;;;;;;;;22.90;58.20;;;;;;8327075;28;19917;-76
2023/08/08 22:51:54;;;;;;;;;;;23.00;59.20;;;;;;8342949;28;19921;-79
2023/08/08 22:55:55;;;;;;;;;;;23.10;57.20;;;;;;8343921;28;20374;-78
2023/08/08 22:59:55;;;;;;;;;;;23.10;57.20;;;;;;8326318;28;19913;-78
2023/08/08 23:03:56;;;;;;;;;;;23.10;56.80;;;;;;8351967;28;20008;-78
2023/08/08 23:07:56;;;;;;;;;;;23.10;56.60;;;;;;8358604;28;19914;-78
2023/08/08 23:11:57;;;;;;;;;;;23.00;56.70;;;;;;8383767;28;20752;-79
2023/08/08 23:15:58;;;;;;;;;;;23.00;56.80;;;;;;8381403;28;20027;-78
2023/08/08 23:24:17;;;;;;;;;;;23.00;56.80;;;;;;8383873;28;19913;-78